Data for 04/24/2015

Time Sea-Level Adjusted Pressure Absolute Pressure Temperature Relative Humidity Dew Point   
(mb) (inHg) (mb) (inHg) (C) (F) (%) (C) (F)
00:05 1008 29.77 837 24.72 8.7 47.7 55 0.2 32.3
00:10 1008 29.77 837 24.72 8.6 47.4 59 1 33.9
00:15 1008 29.77 837 24.72 8.3 47 57 0.4 32.7
00:20 1008 29.77 837 24.72 8.5 47.3 56 0.2 32.4
00:25 1008 29.77 837 24.72 8.4 47.1 59 0.8 33.5
00:30 1008 29.77 837 24.72 7.7 45.9 63 1.2 34.1
00:35 1008 29.77 837 24.72 7.2 44.9 63 0.6 33.1
00:40 1008 29.77 837 24.72 7.3 45.1 62 0.4 32.8
00:45 1007 29.74 837 24.72 7.3 45.1 61 0.3 32.6
00:50 1007 29.74 837 24.72 7.2 45 62 0.4 32.8
00:55 1007 29.74 837 24.72 7.1 44.7 63 0.5 32.9
01:00 1007 29.74 837 24.72 6.7 44.1 64 0.5 32.8
01:05 1007 29.74 837 24.72 6.4 43.5 66 0.5 32.8
01:10 1007 29.74 837 24.72 6.2 43.1 67 0.5 32.9
01:15 1007 29.74 837 24.72 5.9 42.6 69 0.6 33.1
01:20 1007 29.74 836 24.69 5.6 42.1 68 0.2 32.4
01:25 1007 29.74 836 24.69 5.8 42.5 65 -0.1 31.8
01:30 1007 29.74 836 24.69 6.1 42.9 63 -0.4 31.3
01:35 1007 29.74 836 24.69 6.2 43.2 63 -0.2 31.6
01:40 1007 29.74 836 24.69 6.2 43.2 62 -0.4 31.2
01:45 1007 29.74 836 24.69 6.4 43.5 61 -0.5 31.1
01:50 1007 29.74 836 24.69 6.7 44 61 -0.4 31.2
01:55 1007 29.74 836 24.69 6.6 43.8 61 -0.5 31.1
02:00 1007 29.74 836 24.69 6.4 43.4 61 -0.6 30.9
02:05 1007 29.74 836 24.69 6.2 43.1 62 -0.6 30.9
02:10 1007 29.74 836 24.69 6 42.7 63 -0.6 30.9
02:15 1007 29.74 836 24.69 5.8 42.4 64 -0.5 31.1
02:20 1007 29.74 836 24.69 5.6 42.2 64 -0.6 30.9
02:25 1007 29.74 836 24.69 5.8 42.4 63 -0.8 30.6
02:30 1007 29.74 836 24.69 5.8 42.5 63 -0.7 30.7
02:35 1007 29.74 836 24.69 5.6 42.2 64 -0.7 30.8
02:40 1007 29.74 836 24.69 5.4 41.8 65 -0.6 31
02:45 1007 29.74 836 24.69 5.3 41.5 64 -1 30.3
02:50 1007 29.74 836 24.69 5.5 41.9 63 -1 30.3
02:55 1007 29.74 836 24.69 5.5 42 65 -0.5 31.1
03:00 1007 29.74 836 24.69 5.5 41.8 66 -0.3 31.5
03:05 1007 29.74 836 24.69 5.5 41.9 67 -0.1 31.8
03:10 1007 29.74 836 24.69 5.5 41.8 67 -0.2 31.7
03:15 1007 29.74 836 24.69 5.5 41.9 68 0.1 32.1
03:20 1007 29.74 836 24.69 5.3 41.5 68 -0.1 31.9
03:25 1007 29.74 836 24.69 5.2 41.4 69 0 32
03:30 1007 29.74 836 24.69 5.3 41.5 67 -0.4 31.2
03:35 1007 29.74 836 24.69 5.1 41.1 66 -0.7 30.8
03:40 1007 29.74 836 24.69 5.2 41.4 64 -1 30.3
03:45 1007 29.74 836 24.69 5.3 41.6 64 -1 30.2
03:50 1007 29.74 836 24.69 5.4 41.7 64 -0.9 30.4
03:55 1007 29.74 836 24.69 5.5 41.9 63 -0.9 30.4
04:00 1007 29.74 836 24.69 5.7 42.2 64 -0.7 30.8
04:05 1007 29.74 836 24.69 5.7 42.2 64 -0.5 31
04:10 1007 29.74 836 24.69 5.5 41.9 66 -0.4 31.3
04:15 1007 29.74 836 24.69 5.4 41.7 66 -0.5 31.1
04:20 1007 29.74 836 24.69 5.2 41.4 66 -0.5 31
04:25 1007 29.74 836 24.69 5.2 41.3 65 -0.9 30.4
04:30 1007 29.74 836 24.69 5.1 41.2 63 -1.3 29.6
04:35 1007 29.74 836 24.69 5.2 41.3 63 -1.3 29.7
04:40 1007 29.74 836 24.69 5.2 41.4 62 -1.5 29.2
04:45 1007 29.74 836 24.69 5.5 41.8 62 -1.3 29.6
04:50 1007 29.74 836 24.69 5.6 42.2 58 -2 28.3
04:55 1007 29.74 836 24.69 5.8 42.4 59 -1.6 29.1
05:00 1007 29.74 836 24.69 5.5 42 60 -1.7 29
05:05 1007 29.74 836 24.69 6 42.8 57 -1.7 28.9
05:10 1007 29.74 836 24.69 6.2 43.2 57 -1.5 29.2
05:15 1007 29.74 836 24.69 5.4 41.7 62 -1.3 29.6
05:20 1007 29.74 836 24.69 5 41 61 -1.8 28.8
05:25 1007 29.74 836 24.69 5 41 62 -1.7 28.9
05:30 1007 29.74 836 24.69 4.9 40.9 61 -1.9 28.6
05:35 1007 29.74 836 24.69 4.7 40.5 63 -1.8 28.8
05:40 1007 29.74 836 24.69 4.7 40.4 62 -1.9 28.5
05:45 1007 29.74 836 24.69 4.9 40.9 59 -2.4 27.7
05:50 1007 29.74 836 24.69 5.1 41.2 60 -2 28.3
05:55 1007 29.74 836 24.69 4.8 40.6 60 -2.2 28
06:00 1007 29.74 836 24.69 4.6 40.2 61 -2.2 28
06:05 1007 29.74 836 24.69 4.5 40.1 62 -2.1 28.3
06:10 1007 29.74 836 24.69 4.4 40 61 -2.3 27.8
06:15 1007 29.74 836 24.69 4.7 40.4 61 -2.3 27.9
06:20 1007 29.74 836 24.69 4.7 40.5 61 -2.1 28.2
06:25 1007 29.74 836 24.69 4.8 40.6 62 -2 28.5
06:30 1007 29.74 836 24.69 4.7 40.4 63 -1.9 28.6
06:35 1007 29.74 836 24.69 4.5 40.1 64 -1.8 28.8
06:40 1007 29.74 836 24.69 4.6 40.2 61 -2.3 27.9
06:45 1007 29.74 836 24.69 4.8 40.6 60 -2.3 27.8
06:50 1007 29.74 836 24.69 5.1 41.1 58 -2.4 27.7
06:55 1007 29.74 836 24.69 5.4 41.7 58 -2.3 27.9
07:00 1007 29.74 836 24.69 5.5 42 57 -2.3 27.8
07:05 1007 29.74 836 24.69 5.8 42.4 56 -2.3 27.8
07:10 1007 29.74 836 24.69 6 42.8 53 -2.9 26.9
07:15 1007 29.74 836 24.69 6.3 43.3 52 -2.7 27.1
07:20 1007 29.74 836 24.69 6.8 44.2 52 -2.4 27.8
07:25 1007 29.74 836 24.69 7.4 45.2 51 -2 28.4
07:30 1007 29.74 836 24.69 7.9 46.3 49 -2.2 28
07:35 1007 29.74 836 24.69 8.6 47.5 48 -1.7 28.9
07:40 1007 29.74 836 24.69 9 48.3 46 -1.8 28.7
07:45 1007 29.74 836 24.69 9.3 48.8 43 -2.7 27.1
07:50 1007 29.74 836 24.69 9.6 49.3 45 -1.8 28.8
07:55 1007 29.74 836 24.69 9.3 48.7 48 -1.1 30
08:00 1007 29.74 836 24.69 9.6 49.2 45 -1.7 28.9
08:05 1007 29.74 836 24.69 9.6 49.2 45 -1.7 28.9
08:10 1007 29.74 836 24.69 9.1 48.3 46 -2.1 28.3
08:15 1007 29.74 836 24.69 9.5 49 45 -1.8 28.7
08:20 1007 29.74 836 24.69 9.9 49.8 43 -1.9 28.6
08:25 1007 29.74 836 24.69 10.1 50.2 43 -1.8 28.7
08:30 1007 29.74 836 24.69 10.2 50.3 43 -1.8 28.8
08:35 1007 29.74 836 24.69 10.2 50.3 43 -1.7 28.9
08:40 1007 29.74 836 24.69 10.3 50.5 43 -1.7 29
08:45 1007 29.74 836 24.69 10.1 50.3 43 -1.8 28.7
08:50 1007 29.74 836 24.69 10.4 50.7 43 -1.6 29.2
08:55 1007 29.74 836 24.69 10.4 50.6 44 -1.4 29.4
09:00 1007 29.74 836 24.69 10.2 50.4 43 -1.7 28.9
09:05 1007 29.74 836 24.69 10.6 51 43 -1.6 29.2
09:10 1007 29.74 836 24.69 10.7 51.3 43 -1.2 29.8
09:15 1007 29.74 836 24.69 11 51.7 43 -1 30.1
09:20 1007 29.74 836 24.69 11 51.9 43 -0.9 30.4
09:25 1007 29.74 836 24.69 11 51.8 45 -0.5 31.2
09:30 1007 29.74 836 24.69 10.6 51.1 41 -2.1 28.2
09:35 1007 29.74 836 24.69 10.2 50.3 48 -0.4 31.3
09:40 1007 29.74 836 24.69 10 49.9 47 -0.7 30.7
09:45 1007 29.74 836 24.69 10.5 50.9 46 -0.6 30.9
09:50 1007 29.74 836 24.69 11 51.7 46 -0.2 31.7
09:55 1007 29.74 836 24.69 10.7 51.2 46 -0.4 31.3
10:00 1007 29.74 836 24.69 10.5 50.9 45 -0.8 30.5
10:05 1007 29.74 836 24.69 10.7 51.3 45 -0.7 30.8
10:10 1007 29.74 836 24.69 11.2 52.1 41 -1.5 29.3
10:15 1007 29.74 836 24.69 11.6 52.9 36 -2.9 26.8
10:20 1007 29.74 836 24.69 12.1 53.8 33 -3.7 25.4
10:25 1007 29.74 836 24.69 12.6 54.7 31 -3.8 25.2
10:30 1007 29.74 836 24.69 12.5 54.6 30 -4.4 24
10:35 1007 29.74 836 24.69 12.7 54.8 30 -4.4 24
10:40 1007 29.74 836 24.69 13.7 56.6 29 -4.1 24.7
10:45 1007 29.74 836 24.69 14.6 58.2 28 -3.8 25.1
10:50 1007 29.74 836 24.69 14.2 57.5 28 -3.9 25
10:55 1006 29.71 836 24.69 14 57.2 31 -2.7 27.1
11:00 1006 29.71 836 24.69 14.3 57.7 30 -2.9 26.8
11:05 1006 29.71 836 24.69 14.8 58.7 31 -1.9 28.6
11:10 1006 29.71 836 24.69 14.2 57.6 33 -1.6 29
11:15 1006 29.71 836 24.69 13.6 56.5 36 -1.1 30.1
11:20 1006 29.71 835 24.66 12.8 55 35 -2.2 28
11:25 1006 29.71 835 24.66 13.5 56.2 35 -1.5 29.2
11:30 1006 29.71 835 24.66 13.2 55.8 35 -1.7 28.9
11:35 1006 29.71 835 24.66 13.2 55.7 34 -2.2 28.1
11:40 1006 29.71 835 24.66 13.3 56 33 -2.4 27.7
11:45 1006 29.71 835 24.66 14.1 57.3 32 -2.2 28.1
11:50 1006 29.71 835 24.66 14.1 57.4 33 -2 28.4
11:55 1006 29.71 835 24.66 14 57.1 32 -2.5 27.6
12:00 1006 29.71 835 24.66 13.4 56.1 33 -2.3 27.8
12:05 1006 29.71 835 24.66 13.3 56 34 -2.3 27.8
12:10 1006 29.71 835 24.66 13.9 56.9 32 -2.5 27.6
12:15 1006 29.71 835 24.66 14 57.2 33 -1.9 28.5
12:20 1006 29.71 835 24.66 14.1 57.4 32 -2.3 27.8
12:25 1006 29.71 835 24.66 14.8 58.7 31 -2.2 28.1
12:30 1006 29.71 835 24.66 15.4 59.6 30 -2.1 28.2
12:35 1006 29.71 835 24.66 16 60.7 29 -1.8 28.8
12:40 1006 29.71 835 24.66 15.8 60.4 30 -1.8 28.8
12:45 1005 29.68 835 24.66 14.9 58.9 32 -1.5 29.4
12:50 1005 29.68 835 24.66 14.5 58.1 35 -0.8 30.5
12:55 1005 29.68 835 24.66 14.5 58.1 33 -1.6 29.2
13:00 1005 29.68 835 24.66 14.2 57.5 34 -1.4 29.4
13:05 1005 29.68 835 24.66 13.8 56.9 34 -1.6 29.2
13:10 1005 29.68 835 24.66 14 57.2 35 -1.3 29.7
13:15 1005 29.68 835 24.66 14.6 58.2 33 -1.3 29.7
13:20 1005 29.68 835 24.66 14.9 58.9 32 -1.4 29.6
13:25 1005 29.68 835 24.66 15 59.1 33 -0.8 30.5
13:30 1005 29.68 835 24.66 14.9 58.7 34 -0.8 30.6
13:35 1005 29.68 835 24.66 14.7 58.5 34 -1 30.2
13:40 1005 29.68 835 24.66 14.4 57.8 35 -1 30.2
13:45 1005 29.68 835 24.66 15 59 33 -1.2 29.8
13:50 1005 29.68 835 24.66 15.2 59.3 32 -1.1 30
13:55 1006 29.71 835 24.66 14.8 58.7 34 -0.8 30.6
14:00 1006 29.71 835 24.66 14.6 58.3 36 -0.2 31.6
14:05 1006 29.71 835 24.66 14 57.1 39 0.5 32.9
14:10 1006 29.71 835 24.66 13.3 55.9 43 0.9 33.6
14:15 1006 29.71 835 24.66 12.4 54.3 46 1.2 34.1
14:20 1006 29.71 836 24.69 12 53.5 46 0.8 33.4
14:25 1006 29.71 835 24.66 11.7 53 51 1.9 35.4
14:30 1006 29.71 835 24.66 11.4 52.5 50 1.3 34.4
14:35 1006 29.71 835 24.66 11.7 53.1 50 1.6 35
14:40 1006 29.71 835 24.66 11.3 52.3 50 1.4 34.5
14:45 1006 29.71 835 24.66 11.2 52.2 52 1.8 35.2
14:50 1006 29.71 835 24.66 11.2 52.1 51 1.4 34.5
14:55 1006 29.71 835 24.66 11.5 52.6 51 1.7 35
15:00 1006 29.71 835 24.66 11.2 52.1 50 1.1 33.9
15:05 1006 29.71 835 24.66 11.4 52.5 51 1.7 35
15:10 1006 29.71 835 24.66 11.6 53 48 1.2 34.1
15:15 1006 29.71 835 24.66 12 53.5 47 1.1 34
15:20 1006 29.71 835 24.66 11.9 53.4 48 1.4 34.4
15:25 1006 29.71 835 24.66 11.5 52.7 49 1.3 34.3
15:30 1006 29.71 835 24.66 11.7 53 48 1.1 34
15:35 1006 29.71 835 24.66 11.7 53 49 1.3 34.4
15:40 1005 29.68 835 24.66 11.6 52.9 49 1.4 34.6
15:45 1005 29.68 835 24.66 11.8 53.3 48 1.1 34
15:50 1005 29.68 835 24.66 12.1 53.7 47 1 33.9
15:55 1005 29.68 835 24.66 12.6 54.6 47 1.6 34.9
16:00 1005 29.68 834 24.63 12.3 54.1 46 1.1 33.9
16:05 1005 29.68 835 24.66 12.4 54.3 44 0.6 33
16:10 1005 29.68 835 24.66 13.3 55.9 43 1 33.9
16:15 1005 29.68 835 24.66 13.3 55.9 42 0.7 33.3
16:20 1005 29.68 835 24.66 13.6 56.4 41 0.8 33.4
16:25 1005 29.68 835 24.66 14.1 57.3 40 0.6 33.1
16:30 1005 29.68 835 24.66 13.9 56.9 40 0.7 33.2
16:35 1006 29.71 835 24.66 13.5 56.2 43 1.1 34
16:40 1006 29.71 835 24.66 12.9 55.2 45 1.4 34.5
16:45 1006 29.71 835 24.66 11.6 52.9 58 3.7 38.7
16:50 1006 29.71 835 24.66 9.6 49.2 64 3.2 37.8
16:55 1006 29.71 835 24.66 8.9 48 66 3 37.4
17:00 1006 29.71 835 24.66 8.6 47.6 67 2.8 37.1
17:05 1006 29.71 836 24.69 8.4 47.2 68 3 37.3
17:10 1006 29.71 836 24.69 8.1 46.5 70 2.9 37.2
17:15 1007 29.74 836 24.69 7.6 45.7 71 2.7 36.9
17:20 1007 29.74 836 24.69 7.4 45.3 70 2.3 36.2
17:25 1007 29.74 836 24.69 7.3 45.1 71 2.4 36.3
17:30 1007 29.74 836 24.69 7.3 45.1 73 2.7 36.9
17:35 1007 29.74 836 24.69 7 44.6 73 2.5 36.5
17:40 1007 29.74 836 24.69 6.7 44 74 2.4 36.3
17:45 1007 29.74 837 24.72 6.4 43.6 76 2.4 36.4
17:50 1008 29.77 837 24.72 6.1 43 76 2.2 36
17:55 1008 29.77 837 24.72 6.2 43.1 76 2.2 36
18:00 1008 29.77 837 24.72 6 42.9 78 2.5 36.5
18:05 1008 29.77 837 24.72 6 42.8 80 2.9 37.2
18:10 1008 29.77 837 24.72 5.8 42.4 82 2.9 37.2
18:15 1008 29.77 837 24.72 5.6 42.1 83 2.9 37.3
18:20 1008 29.77 837 24.72 5.3 41.5 85 3 37.5
18:25 1008 29.77 837 24.72 5.2 41.3 86 3 37.3
18:30 1008 29.77 837 24.72 5.1 41.1 87 3 37.4
18:35 1008 29.77 837 24.72 5.1 41.2 85 2.8 37
18:40 1008 29.77 837 24.72 5.1 41.1 85 2.8 37.1
18:45 1008 29.77 837 24.72 5 41 84 2.5 36.6
18:50 1008 29.77 837 24.72 4.9 40.8 84 2.5 36.4
18:55 1008 29.77 838 24.75 4.8 40.7 84 2.4 36.2
19:00 1008 29.77 838 24.75 4.8 40.6 85 2.5 36.6
19:05 1008 29.77 838 24.75 4.3 39.8 85 2.1 35.7
19:10 1009 29.8 838 24.75 3.8 38.8 87 1.8 35.2
19:15 1009 29.8 838 24.75 3.4 38.2 89 1.8 35.2
19:20 1009 29.8 838 24.75 3.3 38 89 1.7 35
19:25 1009 29.8 838 24.75 3.2 37.8 89 1.7 35
19:30 1009 29.8 838 24.75 3.2 37.7 90 1.7 35.1
19:35 1009 29.8 838 24.75 3.1 37.5 91 1.7 35
19:40 1009 29.8 838 24.75 3.1 37.5 90 1.6 35
19:45 1009 29.8 838 24.75 3.1 37.6 91 1.7 35.1
19:50 1009 29.8 838 24.75 3 37.4 90 1.5 34.8
19:55 1009 29.8 838 24.75 3 37.4 91 1.7 35
20:00 1009 29.8 838 24.75 2.9 37.3 92 1.7 35
20:05 1009 29.8 838 24.75 2.9 37.2 92 1.6 34.9
20:10 1009 29.8 838 24.75 2.8 37.1 91 1.6 34.8
20:15 1009 29.8 838 24.75 2.6 36.7 90 1.1 34
20:20 1009 29.8 838 24.75 1.8 35.2 92 0.6 33.1
20:25 1009 29.8 839 24.78 1.7 35.1 94 0.8 33.5
20:30 1009 29.8 839 24.78 2.2 35.9 93 1.2 34.1
20:35 1009 29.8 839 24.78 2.2 36 93 1.1 34.1
20:40 1009 29.8 839 24.78 2.2 35.9 92 1.1 34
20:45 1010 29.83 839 24.78 2.2 35.9 92 1 33.8
20:50 1010 29.83 839 24.78 2.1 35.8 92 0.9 33.7
20:55 1010 29.83 839 24.78 1.8 35.2 92 0.6 33
21:00 1010 29.83 839 24.78 1.1 33.9 93 0 32
21:05 1010 29.83 839 24.78 0.7 33.2 93 -0.3 31.5
21:10 1010 29.83 839 24.78 0.5 32.9 94 -0.4 31.4
21:15 1010 29.83 839 24.78 0.5 32.9 94 -0.3 31.4
21:20 1010 29.83 839 24.78 0.5 33 94 -0.3 31.5
21:25 1010 29.83 839 24.78 0.5 33 94 -0.3 31.4
21:30 1010 29.83 839 24.78 0.6 33 94 -0.3 31.5
21:35 1010 29.83 839 24.78 0.6 33.1 94 -0.2 31.6
21:40 1010 29.83 839 24.78 0.7 33.2 94 -0.2 31.7
21:45 1010 29.83 839 24.78 0.7 33.3 94 -0.1 31.8
21:50 1010 29.83 839 24.78 0.8 33.4 94 -0.1 31.8
21:55 1010 29.83 839 24.78 0.8 33.5 94 -0.1 31.9
22:00 1010 29.83 839 24.78 0.9 33.6 94 -0.1 31.9
22:05 1010 29.83 839 24.78 0.9 33.6 94 -0 31.9
22:10 1010 29.83 839 24.78 0.8 33.4 94 -0.2 31.7
22:15 1010 29.83 839 24.78 0.7 33.3 94 -0.2 31.7
22:20 1010 29.83 839 24.78 0.7 33.2 94 -0.2 31.6
22:25 1010 29.83 839 24.78 0.6 33.1 94 -0.3 31.5
22:30 1010 29.83 839 24.78 0.6 33.1 94 -0.2 31.6
22:35 1010 29.83 839 24.78 0.6 33.1 94 -0.2 31.6
22:40 1010 29.83 839 24.78 0.5 33 94 -0.3 31.5
22:45 1010 29.83 839 24.78 0.5 32.9 94 -0.3 31.5
22:50 1010 29.83 839 24.78 0.5 32.9 94 -0.3 31.4
22:55 1010 29.83 839 24.78 0.4 32.8 95 -0.3 31.5
23:00 1010 29.83 839 24.78 0.5 32.9 95 -0.3 31.5
23:05 1010 29.83 839 24.78 0.5 32.9 95 -0.3 31.5
23:10 1010 29.83 839 24.78 0.5 32.8 95 -0.3 31.5
23:15 1010 29.83 839 24.78 0.5 32.8 95 -0.3 31.5
23:20 1010 29.83 839 24.78 0.5 32.9 95 -0.2 31.6
23:25 1010 29.83 839 24.78 0.5 33 95 -0.2 31.6
23:30 1010 29.83 839 24.78 0.6 33 95 -0.2 31.6
23:35 1010 29.83 839 24.78 0.6 33.1 95 -0.1 31.8
23:40 1010 29.83 839 24.78 0.6 33.1 95 -0.2 31.7
23:45 1010 29.83 839 24.78 0.6 33.1 95 -0.2 31.7
23:50 1010 29.83 839 24.78 0.6 33 95 -0.2 31.6
23:55 1010 29.83 839 24.78 0.6 33.1 95 -0.2 31.7
24:00 1010 29.83 839 24.78 0.6 33.1 95 -0.2 31.7